Time;durP1;ratioP1;P1;durP2;ratioP2;P2;SDS_P1;SDS_P2;PMS_P1;PMS_P2;Temp;Humidity;BMP_temperature;BMP_pressure;BME280_temperature;BME280_humidity;BME280_pressure;Samples;Min_cycle;Max_cycle;Signal;HPM_P1;HPM_P2
2022/03/19 00:00:47;;;;;;;222.30;189.95;;;;;;;15.27;31.57;95506.34;5003132;28;20488;-61
2022/03/19 00:03:13;;;;;;;227.13;193.80;;;;;;;15.29;31.56;95507.47;5004116;28;20086;-61
2022/03/19 00:05:39;;;;;;;222.57;190.02;;;;;;;15.31;31.39;95502.44;5012613;28;20195;-61
2022/03/19 00:08:04;;;;;;;218.35;183.13;;;;;;;15.24;31.53;95507.91;5008985;28;20037;-62
2022/03/19 00:10:31;;;;;;;218.70;185.10;;;;;;;15.18;31.47;95514.88;5008271;28;20052;-61
2022/03/19 00:12:58;;;;;;;221.63;189.52;;;;;;;15.18;31.51;95514.13;5008918;28;20056;-62
2022/03/19 00:15:24;;;;;;;224.05;191.02;;;;;;;15.20;31.57;95509.84;5013573;28;20059;-61
2022/03/19 00:17:51;;;;;;;227.52;189.68;;;;;;;15.25;31.43;95516.75;5023569;28;20053;-61
2022/03/19 00:20:17;;;;;;;222.75;190.00;;;;;;;15.30;31.24;95517.09;5015203;28;20608;-62
2022/03/19 00:22:43;;;;;;;214.95;184.57;;;;;;;15.30;31.47;95519.78;5019316;28;20045;-62
2022/03/19 00:25:10;;;;;;;222.15;190.60;;;;;;;15.18;31.35;95514.88;5013930;28;20050;-62
2022/03/19 00:27:36;;;;;;;221.85;189.23;;;;;;;15.20;31.59;95523.34;5019175;28;20054;-61
2022/03/19 00:30:03;;;;;;;216.43;181.60;;;;;;;15.26;31.41;95515.59;5015520;28;20049;-62
2022/03/19 00:32:28;;;;;;;220.48;187.43;;;;;;;15.19;31.51;95512.94;5011298;28;20065;-61
2022/03/19 00:34:54;;;;;;;222.38;188.73;;;;;;;15.28;31.44;95515.94;5011247;28;20050;-61
2022/03/19 00:37:19;;;;;;;237.93;202.57;;;;;;;15.30;31.23;95517.09;5010410;28;20030;-62
2022/03/19 00:39:45;;;;;;;224.15;191.73;;;;;;;15.31;31.19;95515.91;5013308;28;20057;-61
2022/03/19 00:42:10;;;;;;;224.07;187.70;;;;;;;15.36;31.31;95515.50;5016449;28;20143;-62
2022/03/19 00:44:36;;;;;;;231.73;199.93;;;;;;;15.38;31.25;95515.09;5011560;28;20069;-62
2022/03/19 00:47:01;;;;;;;221.85;193.70;;;;;;;15.40;31.26;95518.91;5010140;28;20500;-62
2022/03/19 00:49:27;;;;;;;220.38;194.77;;;;;;;15.43;31.23;95518.13;5007101;28;20045;-61
2022/03/19 00:51:52;;;;;;;219.70;187.68;;;;;;;15.43;31.21;95517.34;5014477;28;20050;-62
2022/03/19 00:54:18;;;;;;;226.48;193.18;;;;;;;15.42;31.39;95513.91;5013173;28;20033;-61
2022/03/19 00:56:46;;;;;;;235.82;204.52;;;;;;;15.43;31.31;95512.72;5010044;28;20054;-62
2022/03/19 00:59:11;;;;;;;217.80;181.05;;;;;;;15.43;31.35;95509.25;5013189;28;20521;-62
2022/03/19 01:01:37;;;;;;;226.85;191.00;;;;;;;15.43;31.29;95506.56;5014724;28;20061;-61
2022/03/19 01:04:03;;;;;;;219.63;188.20;;;;;;;15.41;31.36;95508.91;5015488;28;20061;-61
2022/03/19 01:06:29;;;;;;;216.82;185.50;;;;;;;15.41;30.93;95500.81;5006427;28;20108;-60
2022/03/19 01:08:55;;;;;;;218.20;187.85;;;;;;;15.43;31.31;95495.78;5014050;28;20063;-61
2022/03/19 01:11:23;;;;;;;234.38;197.85;;;;;;;15.45;31.24;95499.63;5011358;28;20108;-61
2022/03/19 01:13:50;;;;;;;222.18;187.32;;;;;;;15.45;31.37;95491.53;5012357;28;20467;-61
2022/03/19 01:16:18;;;;;;;223.30;190.75;;;;;;;15.44;31.40;95495.38;5010321;28;20091;-61
2022/03/19 01:18:48;;;;;;;218.95;185.77;;;;;;;15.43;31.39;95501.94;5009749;28;20041;-62
2022/03/19 01:21:15;;;;;;;239.10;194.88;;;;;;;15.41;31.33;95496.19;5006840;28;20184;-61
2022/03/19 01:23:40;;;;;;;233.85;192.35;;;;;;;15.43;31.45;95487.69;5014287;28;21221;-61
2022/03/19 01:26:06;;;;;;;224.98;188.90;;;;;;;15.45;31.23;95480.75;5012156;28;20073;-62
2022/03/19 01:28:31;;;;;;;218.32;188.02;;;;;;;15.47;31.32;95486.50;5010385;28;20471;-61
2022/03/19 01:30:57;;;;;;;216.98;184.77;;;;;;;15.48;31.23;95474.53;5019733;28;20045;-60
2022/03/19 01:33:22;;;;;;;223.52;191.40;;;;;;;15.45;31.37;95480.75;5007187;28;20054;-62
2022/03/19 01:35:48;;;;;;;217.93;184.90;;;;;;;15.49;31.43;95478.00;5009107;28;20054;-62
2022/03/19 01:38:13;;;;;;;219.77;184.95;;;;;;;15.47;31.76;95486.50;5012939;28;20371;-61
2022/03/19 01:40:39;;;;;;;216.98;187.52;;;;;;;15.46;31.26;95476.88;5012839;28;20453;-62
2022/03/19 01:43:04;;;;;;;225.73;188.55;;;;;;;15.46;31.41;95471.50;5013822;28;20136;-62
2022/03/19 01:45:30;;;;;;;221.43;187.48;;;;;;;15.46;31.37;95474.19;5012705;28;20576;-61
2022/03/19 01:47:56;;;;;;;233.15;200.40;;;;;;;15.47;31.47;95475.72;5010839;28;20069;-62
2022/03/19 01:50:24;;;;;;;246.48;208.00;;;;;;;15.45;31.54;95463.81;5001651;28;20509;-61
2022/03/19 01:52:51;;;;;;;236.35;200.63;;;;;;;15.46;31.36;95458.00;4999572;28;20065;-62
2022/03/19 01:55:20;;;;;;;222.05;190.27;;;;;;;15.46;31.38;95458.00;5004795;28;20524;-62
2022/03/19 01:57:46;;;;;;;219.45;187.82;;;;;;;15.47;31.33;95448.75;5016583;28;20095;-62
2022/03/19 02:00:16;;;;;;;219.82;188.40;;;;;;;15.47;31.24;95450.69;5014020;28;20065;-62
2022/03/19 02:02:44;;;;;;;219.52;186.38;;;;;;;15.44;30.99;95443.41;5009795;28;20057;-62
2022/03/19 02:05:19;;;;;;;217.82;187.07;;;;;;;15.45;31.27;95443.00;5009164;28;20081;-62
2022/03/19 02:07:46;;;;;;;228.18;191.73;;;;;;;15.44;31.34;95446.09;5007729;28;20049;-62
2022/03/19 02:10:13;;;;;;;230.40;191.00;;;;;;;15.41;31.19;95439.56;5008705;28;20045;-61
2022/03/19 02:12:40;;;;;;;220.15;191.25;;;;;;;15.41;31.28;95439.56;5012069;28;20137;-62
2022/03/19 02:15:06;;;;;;;221.85;188.68;;;;;;;15.41;31.29;95439.56;5007703;28;20041;-61
2022/03/19 02:17:32;;;;;;;220.57;185.82;;;;;;;15.36;31.21;95426.53;5009208;28;20072;-62
2022/03/19 02:19:58;;;;;;;220.57;189.75;;;;;;;15.36;31.22;95425.78;5014205;28;20525;-63
2022/03/19 02:22:26;;;;;;;223.50;188.95;;;;;;;15.35;31.31;95413.47;5014519;28;20152;-62
2022/03/19 02:27:36;;;;;;;221.18;188.60;;;;;;;15.39;31.26;95406.09;5012795;28;20042;-62
2022/03/19 02:30:04;;;;;;;216.32;185.35;;;;;;;15.42;31.21;95419.53;5014300;28;20083;-62
2022/03/19 02:32:30;;;;;;;225.68;188.90;;;;;;;15.43;31.31;95409.53;5008707;28;20054;-62
2022/03/19 02:34:55;;;;;;;221.32;187.45;;;;;;;15.39;31.33;95409.56;5011770;28;20061;-62
2022/03/19 02:37:22;;;;;;;216.95;184.95;;;;;;;15.42;31.36;95408.00;5001925;28;20050;-62
2022/03/19 02:39:47;;;;;;;216.82;183.20;;;;;;;15.45;31.40;95399.09;5006534;28;20085;-62
2022/03/19 02:42:17;;;;;;;219.48;188.05;;;;;;;15.44;31.48;95400.28;5016933;28;20097;-61
2022/03/19 02:44:43;;;;;;;224.65;189.02;;;;;;;15.46;31.43;95397.94;5012121;28;20773;-63
2022/03/19 02:47:09;;;;;;;217.05;183.48;;;;;;;15.45;31.28;95399.88;5009796;28;20104;-62
2022/03/19 02:49:35;;;;;;;221.98;187.05;;;;;;;15.44;31.29;95394.88;5011005;28;20502;-61
2022/03/19 02:52:01;;;;;;;213.27;184.25;;;;;;;15.42;31.31;95399.91;5006343;28;20099;-62
2022/03/19 02:54:29;;;;;;;219.00;185.80;;;;;;;15.42;31.37;95406.06;5010801;28;20042;-62
2022/03/19 02:56:55;;;;;;;219.38;184.52;;;;;;;15.40;31.35;95403.00;5011927;28;20049;-62
2022/03/19 02:59:31;;;;;;;222.63;186.80;;;;;;;15.37;31.20;95406.50;5133033;27;20390;-60
2022/03/19 03:02:02;;;;;;;232.35;195.07;;;;;;;15.37;31.32;95413.81;5128450;27;20032;-62
2022/03/19 03:04:28;;;;;;;217.57;184.07;;;;;;;15.40;31.25;95413.03;5132628;27;20051;-61
2022/03/19 03:06:57;;;;;;;212.70;184.70;;;;;;;15.43;31.37;95414.91;5139164;27;20523;-61
2022/03/19 03:09:25;;;;;;;223.40;191.70;;;;;;;15.42;31.32;95411.44;5129210;27;20034;-62
2022/03/19 03:11:51;;;;;;;229.55;194.05;;;;;;;15.43;31.24;95415.69;5122651;27;20040;-61
2022/03/19 03:14:20;;;;;;;218.40;189.23;;;;;;;15.45;31.35;95415.28;5130355;27;20090;-61
2022/03/19 03:16:47;;;;;;;220.00;187.80;;;;;;;15.46;31.30;95414.09;5130562;27;20055;-62
2022/03/19 03:19:14;;;;;;;220.95;188.07;;;;;;;15.44;31.31;95419.91;5131374;27;20039;-62
2022/03/19 03:21:40;;;;;;;243.13;203.32;;;;;;;15.42;31.30;95410.69;5131378;27;20479;-61
2022/03/19 03:24:10;;;;;;;219.27;184.70;;;;;;;15.43;31.44;95414.91;5125980;27;20075;-62
2022/03/19 03:26:36;;;;;;;214.98;184.15;;;;;;;15.44;31.44;95411.81;5131256;27;20127;-62
2022/03/19 03:29:02;;;;;;;219.98;185.95;;;;;;;15.44;31.33;95414.50;5129037;27;20680;-61
2022/03/19 03:31:28;;;;;;;227.63;191.93;;;;;;;15.41;31.31;95420.72;5133201;27;20051;-60
2022/03/19 03:33:54;;;;;;;221.68;189.00;;;;;;;15.41;31.46;95430.72;5122667;27;20065;-61
2022/03/19 03:36:21;;;;;;;216.13;184.68;;;;;;;15.38;31.43;95429.59;5134432;27;20107;-62
2022/03/19 03:38:47;;;;;;;230.35;193.88;;;;;;;15.38;31.52;95420.75;5130779;27;20072;-62
2022/03/19 03:41:13;;;;;;;218.85;187.77;;;;;;;15.35;31.31;95427.69;5128171;27;20047;-62
2022/03/19 03:43:38;;;;;;;222.48;185.57;;;;;;;15.35;31.24;95416.91;5130424;27;20039;-60
2022/03/19 03:46:04;;;;;;;225.80;192.07;;;;;;;15.34;31.26;95407.31;5132844;27;20043;-61
2022/03/19 03:48:30;;;;;;;230.25;196.27;;;;;;;15.36;31.35;95402.28;5125192;27;20043;-62
2022/03/19 03:50:57;;;;;;;218.45;185.98;;;;;;;15.38;31.40;95401.88;5124711;27;20570;-61
2022/03/19 03:53:25;;;;;;;220.80;186.85;;;;;;;15.38;31.30;95399.19;5135829;27;20071;-61
2022/03/19 03:55:51;;;;;;;214.25;180.93;;;;;;;15.40;31.43;95396.84;5133250;27;20702;-62
2022/03/19 03:58:17;;;;;;;224.00;192.10;;;;;;;15.38;31.27;95401.88;5132849;27;20039;-61
2022/03/19 04:00:43;;;;;;;248.32;206.70;;;;;;;15.37;31.31;95401.09;5128002;27;20498;-60
2022/03/19 04:03:08;;;;;;;221.70;189.63;;;;;;;15.31;31.30;95394.63;5126162;27;20665;-61
2022/03/19 04:05:34;;;;;;;219.13;186.80;;;;;;;15.31;31.23;95388.47;5130274;27;20145;-61
2022/03/19 04:08:03;;;;;;;220.60;187.75;;;;;;;15.33;31.38;95392.31;5119708;27;20403;-62
2022/03/19 04:10:30;;;;;;;219.88;192.32;;;;;;;15.35;31.34;95381.13;5113850;27;20363;-60
2022/03/19 04:12:55;;;;;;;223.57;191.65;;;;;;;15.38;31.12;95380.31;5110809;27;20040;-62
2022/03/19 04:15:21;;;;;;;219.65;188.88;;;;;;;15.39;31.30;95392.63;5118552;27;20384;-61
2022/03/19 04:17:46;;;;;;;230.90;195.07;;;;;;;15.39;31.24;95385.31;5114591;27;20041;-62
2022/03/19 04:20:13;;;;;;;225.38;194.65;;;;;;;15.39;31.18;95385.31;5111903;27;20047;-61
2022/03/19 04:22:39;;;;;;;233.40;198.55;;;;;;;15.41;31.40;95384.91;5109618;27;20054;-61
2022/03/19 04:25:19;;;;;;;223.45;187.90;;;;;;;15.40;31.44;95388.75;5118276;27;20043;-62
2022/03/19 04:27:50;;;;;;;223.38;189.15;;;;;;;15.38;31.36;95388.41;5118548;27;20046;-62
2022/03/19 04:30:17;;;;;;;221.02;186.73;;;;;;;15.40;31.34;95377.97;5119186;27;20051;-62
2022/03/19 04:32:50;;;;;;;219.65;187.55;;;;;;;15.39;31.49;95376.44;5119164;27;20041;-62
2022/03/19 04:38:07;;;;;;;225.95;190.13;;;;;;;15.41;31.35;95374.88;5121373;27;20547;-62
2022/03/19 04:40:34;;;;;;;223.07;186.10;;;;;;;15.42;31.45;95373.72;5111036;27;20044;-60
2022/03/19 04:42:59;;;;;;;233.82;197.73;;;;;;;15.43;31.48;95382.56;5110995;27;20078;-62
2022/03/19 04:45:25;;;;;;;211.95;179.75;;;;;;;15.43;31.41;95379.88;5121165;27;20102;-61
2022/03/19 04:47:52;;;;;;;224.48;190.50;;;;;;;15.43;31.39;95380.63;5120165;27;20108;-62
2022/03/19 04:50:17;;;;;;;220.52;188.70;;;;;;;15.44;31.53;95387.56;5114392;27;20085;-60
2022/03/19 04:52:43;;;;;;;231.63;193.40;;;;;;;15.43;31.37;95363.69;5118940;27;20049;-62
2022/03/19 04:55:10;;;;;;;222.05;185.60;;;;;;;15.44;31.48;95367.91;5117557;27;20067;-62
2022/03/19 04:57:36;;;;;;;241.18;203.27;;;;;;;15.42;31.41;95368.31;5108410;27;20119;-61
2022/03/19 05:00:04;;;;;;;230.10;196.02;;;;;;;15.44;31.45;95365.22;5110373;27;20046;-62
2022/03/19 05:02:30;;;;;;;217.65;185.77;;;;;;;15.43;31.42;95364.47;5110876;27;20047;-60
2022/03/19 05:04:56;;;;;;;217.80;186.68;;;;;;;15.44;31.67;95360.59;5113793;27;20468;-61
2022/03/19 05:07:22;;;;;;;225.27;189.50;;;;;;;15.46;31.42;95357.50;5112971;27;20105;-62
2022/03/19 05:12:35;;;;;;;216.45;180.00;;;;;;;15.48;31.48;95363.25;5124687;27;20043;-62
2022/03/19 05:15:00;;;;;;;230.73;192.57;;;;;;;15.47;31.39;95361.72;5120477;27;20332;-61
2022/03/19 05:17:26;;;;;;;234.30;193.60;;;;;;;15.47;31.32;95354.41;5109959;27;20039;-62
2022/03/19 05:19:52;;;;;;;212.88;180.02;;;;;;;15.47;31.47;95359.03;5113065;27;20730;-61
2022/03/19 05:22:18;;;;;;;216.93;182.68;;;;;;;15.49;31.29;95367.47;5115857;27;20119;-62
2022/03/19 05:24:44;;;;;;;236.40;203.20;;;;;;;15.49;31.38;95354.75;5109549;27;20138;-62
2022/03/19 05:27:10;;;;;;;215.30;183.32;;;;;;;15.48;31.35;95355.91;5105945;27;20187;-61
2022/03/19 05:29:36;;;;;;;213.20;183.00;;;;;;;15.49;31.21;95356.69;5121467;27;20039;-62
2022/03/19 05:32:03;;;;;;;216.45;186.13;;;;;;;15.52;31.26;95360.50;5114520;27;20046;-62
2022/03/19 05:34:31;;;;;;;211.77;182.70;;;;;;;15.53;31.14;95359.34;5107427;27;20100;-60
2022/03/19 05:37:01;;;;;;;216.88;183.55;;;;;;;15.51;31.11;95353.59;5106659;27;20043;-61
2022/03/19 05:39:31;;;;;;;217.85;186.55;;;;;;;15.55;31.21;95354.31;5116687;27;20099;-61
2022/03/19 05:41:57;;;;;;;220.50;190.30;;;;;;;15.56;31.39;95355.84;5101298;27;20066;-61
2022/03/19 05:44:23;;;;;;;219.98;192.10;;;;;;;15.58;31.23;95356.22;5110453;27;20663;-61
2022/03/19 05:46:49;;;;;;;225.07;187.50;;;;;;;15.58;31.13;95348.91;5112308;27;20043;-61
2022/03/19 05:49:14;;;;;;;219.63;187.55;;;;;;;15.58;31.05;95348.13;5115561;27;20043;-61
2022/03/19 05:51:40;;;;;;;237.25;196.10;;;;;;;15.61;31.19;95341.91;5116331;27;20066;-62
2022/03/19 05:54:06;;;;;;;225.98;189.60;;;;;;;15.61;31.09;95350.00;5099600;27;20412;-62
2022/03/19 05:56:32;;;;;;;228.02;194.88;;;;;;;15.62;31.21;95354.22;5102964;27;20052;-62
2022/03/19 05:58:58;;;;;;;218.25;186.02;;;;;;;15.61;31.21;95356.16;5112269;27;20368;-61
2022/03/19 06:01:28;;;;;;;224.38;193.95;;;;;;;15.63;31.16;95350.34;5112342;27;20147;-61
2022/03/19 06:03:54;;;;;;;226.60;193.70;;;;;;;15.63;31.13;95350.34;5111384;27;20055;-61
2022/03/19 06:06:20;;;;;;;258.27;213.07;;;;;;;15.62;31.35;95344.19;5091949;27;20169;-61
2022/03/19 06:08:45;;;;;;;246.88;206.32;;;;;;;15.64;31.19;95343.78;5092361;27;20138;-60
2022/03/19 06:11:11;;;;;;;245.07;204.88;;;;;;;15.63;31.26;95343.03;5090075;27;20535;-61
2022/03/19 06:13:37;;;;;;;242.75;205.57;;;;;;;15.63;31.11;95343.03;5091241;27;20055;-61
2022/03/19 06:16:03;;;;;;;249.00;210.93;;;;;;;15.65;31.23;95345.31;5090378;27;20058;-62
2022/03/19 06:18:28;;;;;;;251.90;211.60;;;;;;;15.64;31.16;95341.09;5086895;27;20046;-61
2022/03/19 06:20:56;;;;;;;251.95;211.48;;;;;;;15.64;31.06;95338.41;5090388;27;20059;-61
2022/03/19 06:23:22;;;;;;;253.50;207.77;;;;;;;15.63;31.24;95345.72;5089335;27;20050;-60
2022/03/19 06:25:49;;;;;;;247.65;205.85;;;;;;;15.64;31.11;95341.09;5092167;27;20118;-61
2022/03/19 06:28:15;;;;;;;226.15;197.95;;;;;;;15.62;31.16;95336.09;5089595;27;20051;-62
2022/03/19 06:30:41;;;;;;;252.15;210.55;;;;;;;15.60;31.16;95335.75;5087515;27;20058;-64
2022/03/19 06:33:07;;;;;;;240.20;201.43;;;;;;;15.61;31.31;95336.50;5088055;27;20173;-65
2022/03/19 06:38:21;;;;;;;259.10;215.27;;;;;;;15.58;30.97;95331.97;5088340;27;20452;-64
2022/03/19 06:40:47;;;;;;;244.80;211.23;;;;;;;15.59;31.31;95330.78;5090947;27;20051;-63
2022/03/19 06:43:12;;;;;;;253.82;213.05;;;;;;;15.53;31.00;95325.06;5090356;27;20052;-61
2022/03/19 06:45:38;;;;;;;257.30;216.25;;;;;;;15.53;31.22;95324.28;5089653;27;20039;-62
2022/03/19 06:48:05;;;;;;;264.95;220.40;;;;;;;15.54;31.13;95315.03;5092056;27;20059;-63
2022/03/19 06:50:30;;;;;;;255.73;211.80;;;;;;;15.52;30.95;95307.34;5087479;27;20044;-63
2022/03/19 06:52:56;;;;;;;247.10;208.80;;;;;;;15.51;30.78;95305.81;5090016;27;20040;-59
2022/03/19 06:55:21;;;;;;;261.42;218.80;;;;;;;15.53;30.89;95316.19;5090493;27;20051;-59
2022/03/19 06:57:47;;;;;;;256.50;212.43;;;;;;;15.56;30.96;95323.47;5090998;27;20567;-61
2022/03/19 07:00:13;;;;;;;255.98;214.07;;;;;;;15.52;30.99;95314.69;5090830;27;20104;-62
2022/03/19 07:02:49;;;;;;;253.73;207.80;;;;;;;15.48;31.04;95304.69;5089860;28;20051;-60
2022/03/19 07:05:32;;;;;;;257.15;212.63;;;;;;;15.46;31.07;95298.19;5092420;27;20063;-61
2022/03/19 07:08:00;;;;;;;248.90;204.95;;;;;;;15.54;30.97;95298.84;5090421;28;20079;-62
2022/03/19 07:10:25;;;;;;;241.98;203.48;;;;;;;15.50;30.95;95293.50;5090087;27;20062;-61
2022/03/19 07:12:54;;;;;;;254.60;208.77;;;;;;;15.52;31.08;95285.03;5091502;27;20043;-61
2022/03/19 07:15:24;;;;;;;249.90;208.55;;;;;;;15.52;30.92;95287.72;5091956;27;20058;-62
2022/03/19 07:17:50;;;;;;;261.55;217.27;;;;;;;15.51;30.95;95286.19;5087773;27;20044;-60
2022/03/19 07:20:17;;;;;;;252.32;210.43;;;;;;;15.46;30.85;95282.78;5091323;27;20047;-61
2022/03/19 07:22:53;;;;;;;249.75;210.32;;;;;;;15.51;31.01;95283.50;5091689;28;20044;-61
2022/03/19 07:25:20;;;;;;;252.27;209.82;;;;;;;15.48;31.01;95282.38;5091872;27;20233;-61
2022/03/19 07:27:46;;;;;;;234.63;199.80;;;;;;;15.44;30.90;95279.72;5093681;28;20572;-61
2022/03/19 07:30:13;;;;;;;262.27;214.07;;;;;;;15.47;30.87;95281.59;5089361;27;20055;-61
2022/03/19 07:32:39;;;;;;;254.90;210.07;;;;;;;15.43;30.96;95272.81;5090027;28;20054;-60
2022/03/19 07:35:06;;;;;;;248.98;206.48;;;;;;;15.44;30.92;95277.03;5089505;27;21130;-61
2022/03/19 07:37:33;;;;;;;250.68;213.82;;;;;;;15.47;30.83;95270.81;5090015;27;20074;-61
2022/03/19 07:39:59;;;;;;;249.95;209.20;;;;;;;15.47;31.07;95270.81;5089052;27;20695;-61
2022/03/19 07:42:25;;;;;;;254.73;207.68;;;;;;;15.48;30.93;95275.03;5084588;27;20043;-62
2022/03/19 07:44:51;;;;;;;246.13;201.10;;;;;;;15.54;30.85;95269.19;5092639;27;20043;-62
2022/03/19 07:47:17;;;;;;;257.73;213.80;;;;;;;15.49;30.79;95281.19;5094811;27;20192;-61
2022/03/19 07:49:43;;;;;;;268.33;219.48;;;;;;;15.30;31.23;95269.13;5090361;27;20415;-62
2022/03/19 07:52:09;;;;;;;238.70;202.82;;;;;;;15.35;31.26;95268.66;5094253;27;20051;-61
2022/03/19 07:54:36;;;;;;;251.35;203.68;;;;;;;15.29;30.93;95264.13;5095558;27;20520;-61
2022/03/19 07:57:05;;;;;;;264.15;216.80;;;;;;;15.20;31.10;95269.25;5094510;27;20054;-61
2022/03/19 07:59:31;;;;;;;253.40;208.70;;;;;;;15.22;31.24;95265.00;5096231;27;20196;-62
2022/03/19 08:01:56;;;;;;;248.30;202.82;;;;;;;15.27;31.12;95264.53;5095470;27;20047;-62
2022/03/19 08:04:22;;;;;;;255.65;207.48;;;;;;;15.19;31.33;95257.72;5094083;27;20047;-61
2022/03/19 08:06:53;;;;;;;251.60;206.20;;;;;;;15.30;31.29;95260.28;5094844;27;20157;-63
2022/03/19 08:09:20;;;;;;;244.32;204.60;;;;;;;15.23;31.31;95260.38;5095149;27;20109;-60
2022/03/19 08:11:49;;;;;;;259.63;210.35;;;;;;;15.20;31.48;95261.94;5093750;27;20511;-60
2022/03/19 08:14:16;;;;;;;261.58;212.07;;;;;;;15.09;31.56;95258.63;5095580;27;20088;-59
2022/03/19 08:16:42;;;;;;;261.50;211.52;;;;;;;15.07;31.62;95260.94;5094334;27;20568;-59
2022/03/19 08:19:11;;;;;;;260.48;215.00;;;;;;;15.13;31.34;95260.09;5092212;27;20044;-59
2022/03/19 08:21:38;;;;;;;261.23;216.02;;;;;;;15.20;31.39;95258.47;5096159;27;20110;-59
2022/03/19 08:24:07;;;;;;;250.23;210.25;;;;;;;15.26;31.17;95256.88;5092771;27;20280;-59
2022/03/19 08:26:33;;;;;;;252.77;205.85;;;;;;;15.33;31.07;95256.78;5096108;27;20051;-59
2022/03/19 08:28:59;;;;;;;253.13;215.10;;;;;;;15.29;31.35;95247.97;5091630;27;20052;-60
2022/03/19 08:31:25;;;;;;;284.13;233.57;;;;;;;15.27;31.27;95242.97;5084943;27;20089;-59
2022/03/19 08:33:51;;;;;;;247.85;203.30;;;;;;;15.21;31.50;95250.00;5082889;27;20062;-59
2022/03/19 08:36:17;;;;;;;257.35;211.18;;;;;;;15.26;31.39;95251.47;5093533;27;20527;-58
2022/03/19 08:41:27;;;;;;;251.63;211.65;;;;;;;14.92;31.82;95240.75;5092157;27;20176;-59
2022/03/19 08:43:53;;;;;;;257.00;209.60;;;;;;;15.10;31.52;95239.34;5090751;27;20457;-60
2022/03/19 08:46:19;;;;;;;259.77;213.07;;;;;;;15.21;31.24;95238.44;5093608;27;20494;-60
2022/03/19 08:48:45;;;;;;;253.73;208.90;;;;;;;14.98;31.69;95236.44;5092284;27;20040;-59
2022/03/19 08:53:55;;;;;;;253.38;208.55;;;;;;;15.07;31.47;95228.63;5092435;27;20060;-59
2022/03/19 08:56:21;;;;;;;262.80;213.45;;;;;;;15.01;31.78;95222.16;5092255;27;20142;-65
2022/03/19 08:58:47;;;;;;;264.23;215.35;;;;;;;15.01;31.66;95222.16;5093038;27;20107;-63
2022/03/19 09:01:12;;;;;;;247.52;200.10;;;;;;;15.09;31.56;95216.28;5093942;27;20047;-62
2022/03/19 09:03:38;;;;;;;270.52;217.68;;;;;;;14.75;32.08;95215.56;5094670;27;20032;-62
2022/03/19 09:06:04;;;;;;;257.15;210.07;;;;;;;14.73;31.99;95209.81;5093493;27;20043;-61
2022/03/19 09:08:29;;;;;;;254.48;208.05;;;;;;;14.84;31.73;95199.69;5094055;27;20401;-61
2022/03/19 09:10:58;;;;;;;254.75;203.57;;;;;;;14.92;31.66;95203.81;5095775;27;20051;-62
2022/03/19 09:13:24;;;;;;;254.13;206.05;;;;;;;14.96;31.63;95199.13;5095707;27;20610;-61
2022/03/19 09:15:49;;;;;;;256.23;209.48;;;;;;;15.05;31.37;95199.38;5096446;27;20067;-61
2022/03/19 09:18:16;;;;;;;251.40;206.02;;;;;;;15.13;31.22;95191.97;5093971;27;20051;-61
2022/03/19 09:20:42;;;;;;;256.35;211.13;;;;;;;15.20;30.94;95191.13;5090344;27;20138;-61
2022/03/19 09:23:09;;;;;;;243.88;196.60;;;;;;;15.14;31.21;95191.56;5089503;27;20058;-62
2022/03/19 09:25:35;;;;;;;241.10;194.55;;;;;;;15.20;31.17;95191.13;5095672;27;20056;-61
2022/03/19 09:28:01;;;;;;;229.68;188.55;;;;;;;15.23;30.85;95184.91;5095753;27;20196;-62
2022/03/19 09:30:26;;;;;;;252.23;205.52;;;;;;;15.24;31.00;95187.19;5095881;27;20072;-62
2022/03/19 09:32:56;;;;;;;255.38;209.93;;;;;;;15.18;30.88;95188.06;5094061;27;20165;-62
2022/03/19 09:35:23;;;;;;;252.07;206.18;;;;;;;15.20;30.97;95174.94;5095783;27;20047;-62
2022/03/19 09:37:49;;;;;;;247.55;201.90;;;;;;;15.12;30.90;95179.66;5095933;27;20569;-62
2022/03/19 09:40:15;;;;;;;257.90;213.35;;;;;;;14.98;31.08;95180.63;5091687;27;20046;-64
2022/03/19 09:42:52;;;;;;;271.27;217.77;;;;;;;14.76;31.17;95165.94;5091921;27;20044;-62
2022/03/19 09:45:19;;;;;;;259.05;211.48;;;;;;;14.87;31.29;95157.72;5095715;27;20112;-61
2022/03/19 09:47:45;;;;;;;252.52;206.65;;;;;;;15.02;30.86;95157.09;5095383;27;20039;-61
2022/03/19 09:50:11;;;;;;;237.32;198.45;;;;;;;15.01;30.86;95150.19;5093942;27;20150;-62
2022/03/19 09:52:40;;;;;;;254.80;208.95;;;;;;;14.91;30.91;95153.03;5092445;27;20040;-62
2022/03/19 09:55:07;;;;;;;250.32;206.35;;;;;;;14.84;31.04;95140.44;5094751;27;20070;-62
2022/03/19 09:57:33;;;;;;;241.30;198.10;;;;;;;14.95;30.76;95143.72;5091529;27;20769;-62
2022/03/19 09:59:58;;;;;;;254.48;207.55;;;;;;;14.98;30.88;95142.91;5091941;27;20064;-61
2022/03/19 10:02:24;;;;;;;246.95;201.65;;;;;;;15.04;30.59;95137.81;5092256;27;20050;-63
2022/03/19 10:04:53;;;;;;;251.75;202.40;;;;;;;14.98;30.80;95132.13;5093447;27;20052;-63
2022/03/19 10:10:11;;;;;;;284.02;226.18;;;;;;;14.93;30.75;95121.84;5085754;27;20052;-66
2022/03/19 10:12:39;;;;;;;256.63;211.43;;;;;;;14.33;32.82;95120.66;5084240;27;20038;-65
2022/03/19 10:15:09;;;;;;;210.02;169.70;;;;;;;13.63;32.13;95114.13;5084658;27;20491;-64
2022/03/19 10:17:39;;;;;;;206.07;169.30;;;;;;;14.35;31.21;95123.69;5090391;27;20050;-65
2022/03/19 10:20:07;;;;;;;197.93;163.05;;;;;;;14.60;31.08;95117.28;5083957;27;20039;-63
2022/03/19 10:22:33;;;;;;;200.88;164.55;;;;;;;14.69;30.68;95118.31;5091865;27;20056;-64
2022/03/19 10:25:05;;;;;;;206.93;170.02;;;;;;;14.78;30.70;95115.88;5090888;27;20129;-61
2022/03/19 10:27:32;;;;;;;211.65;175.20;;;;;;;14.92;30.53;95098.00;5088415;27;20058;-61
2022/03/19 10:30:21;;;;;;;204.40;170.25;;;;;;;15.08;30.60;95095.44;5089105;27;20040;-61
2022/03/19 10:32:48;;;;;;;194.95;159.10;;;;;;;15.11;30.74;95097.31;5091897;27;20039;-61
2022/03/19 10:35:33;;;;;;;201.65;167.60;;;;;;;15.01;30.66;95104.38;5091336;27;20066;-63
2022/03/19 10:38:15;;;;;;;202.27;165.68;;;;;;;15.08;30.90;95082.72;5091748;27;20047;-63
2022/03/19 10:40:43;;;;;;;204.65;168.13;;;;;;;15.02;30.87;95086.28;5092777;27;20055;-63
2022/03/19 10:43:10;;;;;;;208.48;172.98;;;;;;;15.02;30.88;95084.34;5090231;28;20199;-62
2022/03/19 10:45:44;;;;;;;207.27;171.35;;;;;;;14.96;30.87;95087.91;5089628;27;20765;-62
2022/03/19 10:48:13;;;;;;;210.18;174.60;;;;;;;14.91;30.93;95083.78;5090675;27;20663;-62
2022/03/19 10:50:42;;;;;;;205.55;170.98;;;;;;;15.05;30.94;95080.09;5088840;27;20470;-62
2022/03/19 10:53:07;;;;;;;210.52;173.95;;;;;;;15.07;30.92;95070.44;5088823;27;20470;-62
2022/03/19 10:55:34;;;;;;;205.77;172.30;;;;;;;14.96;31.18;95064.44;5091062;27;20051;-62
2022/03/19 10:57:59;;;;;;;191.57;159.63;;;;;;;14.91;31.18;95066.84;5112072;27;20050;-61
2022/03/19 11:00:25;;;;;;;194.93;160.95;;;;;;;14.89;31.00;95061.88;5114362;27;20088;-63
2022/03/19 11:02:56;;;;;;;192.80;159.55;;;;;;;14.75;31.19;95049.38;5113037;27;20039;-62
2022/03/19 11:05:21;;;;;;;191.63;157.68;;;;;;;14.73;30.95;95059.78;5112648;28;20501;-60
2022/03/19 11:07:47;;;;;;;194.63;161.45;;;;;;;14.81;31.06;95047.00;5107807;27;20068;-62
2022/03/19 11:10:14;;;;;;;193.23;161.45;;;;;;;14.98;30.75;95037.84;5110979;28;20432;-61
2022/03/19 11:12:43;;;;;;;192.45;159.90;;;;;;;15.12;30.75;95031.50;5109705;28;20044;-62
2022/03/19 11:15:13;;;;;;;191.93;159.43;;;;;;;15.20;30.48;95027.50;5123389;28;20424;-62
2022/03/19 11:17:40;;;;;;;188.85;157.10;;;;;;;15.27;30.48;95023.94;5125109;27;20573;-62
2022/03/19 11:20:09;;;;;;;192.75;161.23;;;;;;;15.30;30.61;95018.47;5115878;27;20035;-61